sensor_id;sensor_type;location;lat;lon;timestamp;P1;durP1;ratioP1;P2;durP2;ratioP2
68214;SDS011;55036;52.138;5.236;2022-07-04T00:00:03;3.25;;;1.40;;
68214;SDS011;55036;52.138;5.236;2022-07-04T00:02:32;5.63;;;1.90;;
68214;SDS011;55036;52.138;5.236;2022-07-04T00:04:59;5.00;;;1.60;;
68214;SDS011;55036;52.138;5.236;2022-07-04T00:07:26;3.35;;;1.73;;
68214;SDS011;55036;52.138;5.236;2022-07-04T00:09:53;6.13;;;1.60;;
68214;SDS011;55036;52.138;5.236;2022-07-04T00:12:20;4.18;;;1.50;;
68214;SDS011;55036;52.138;5.236;2022-07-04T00:14:47;3.83;;;1.50;;
68214;SDS011;55036;52.138;5.236;2022-07-04T00:17:14;5.15;;;1.60;;
68214;SDS011;55036;52.138;5.236;2022-07-04T00:19:41;3.95;;;1.50;;
68214;SDS011;55036;52.138;5.236;2022-07-04T00:22:07;3.15;;;1.60;;
68214;SDS011;55036;52.138;5.236;2022-07-04T00:24:34;3.10;;;1.40;;
68214;SDS011;55036;52.138;5.236;2022-07-04T00:27:01;3.40;;;1.30;;
68214;SDS011;55036;52.138;5.236;2022-07-04T00:29:28;3.53;;;1.77;;
68214;SDS011;55036;52.138;5.236;2022-07-04T00:31:55;2.85;;;1.60;;
68214;SDS011;55036;52.138;5.236;2022-07-04T00:34:22;3.58;;;1.52;;
68214;SDS011;55036;52.138;5.236;2022-07-04T00:36:48;3.28;;;1.55;;
68214;SDS011;55036;52.138;5.236;2022-07-04T00:39:15;3.17;;;1.73;;
68214;SDS011;55036;52.138;5.236;2022-07-04T00:41:42;4.43;;;1.60;;
68214;SDS011;55036;52.138;5.236;2022-07-04T00:44:10;4.75;;;1.73;;
68214;SDS011;55036;52.138;5.236;2022-07-04T00:46:39;4.63;;;1.80;;
68214;SDS011;55036;52.138;5.236;2022-07-04T00:49:07;1.90;;;1.30;;
68214;SDS011;55036;52.138;5.236;2022-07-04T00:51:36;2.60;;;1.40;;
68214;SDS011;55036;52.138;5.236;2022-07-04T00:54:05;3.72;;;1.50;;
68214;SDS011;55036;52.138;5.236;2022-07-04T00:56:35;2.67;;;1.38;;
68214;SDS011;55036;52.138;5.236;2022-07-04T00:59:03;2.63;;;1.33;;
68214;SDS011;55036;52.138;5.236;2022-07-04T01:01:30;5.07;;;1.85;;
68214;SDS011;55036;52.138;5.236;2022-07-04T01:03:57;3.55;;;1.60;;
68214;SDS011;55036;52.138;5.236;2022-07-04T01:06:24;4.20;;;2.00;;
68214;SDS011;55036;52.138;5.236;2022-07-04T01:08:51;4.00;;;1.95;;
68214;SDS011;55036;52.138;5.236;2022-07-04T01:11:18;6.63;;;1.95;;
68214;SDS011;55036;52.138;5.236;2022-07-04T01:13:45;2.75;;;1.60;;
68214;SDS011;55036;52.138;5.236;2022-07-04T01:16:11;3.05;;;1.63;;
68214;SDS011;55036;52.138;5.236;2022-07-04T01:18:39;4.55;;;1.90;;
68214;SDS011;55036;52.138;5.236;2022-07-04T01:21:06;5.50;;;1.98;;
68214;SDS011;55036;52.138;5.236;2022-07-04T01:23:37;4.70;;;1.55;;
68214;SDS011;55036;52.138;5.236;2022-07-04T01:26:06;4.60;;;1.55;;
68214;SDS011;55036;52.138;5.236;2022-07-04T01:28:33;4.55;;;1.88;;
68214;SDS011;55036;52.138;5.236;2022-07-04T01:31:00;9.40;;;2.05;;
68214;SDS011;55036;52.138;5.236;2022-07-04T01:33:27;3.63;;;1.90;;
68214;SDS011;55036;52.138;5.236;2022-07-04T01:35:54;3.28;;;2.13;;
68214;SDS011;55036;52.138;5.236;2022-07-04T01:38:20;8.45;;;2.40;;
68214;SDS011;55036;52.138;5.236;2022-07-04T01:40:47;2.63;;;1.80;;
68214;SDS011;55036;52.138;5.236;2022-07-04T01:43:14;3.97;;;2.05;;
68214;SDS011;55036;52.138;5.236;2022-07-04T01:45:41;5.90;;;2.33;;
68214;SDS011;55036;52.138;5.236;2022-07-04T01:48:09;4.03;;;2.10;;
68214;SDS011;55036;52.138;5.236;2022-07-04T01:50:37;4.93;;;1.98;;
68214;SDS011;55036;52.138;5.236;2022-07-04T01:53:04;4.65;;;2.10;;
68214;SDS011;55036;52.138;5.236;2022-07-04T01:55:32;3.97;;;1.92;;
68214;SDS011;55036;52.138;5.236;2022-07-04T01:57:59;6.60;;;2.00;;
68214;SDS011;55036;52.138;5.236;2022-07-04T02:00:26;4.43;;;1.90;;
68214;SDS011;55036;52.138;5.236;2022-07-04T02:03:12;4.30;;;1.90;;
68214;SDS011;55036;52.138;5.236;2022-07-04T02:05:39;4.72;;;2.17;;
68214;SDS011;55036;52.138;5.236;2022-07-04T02:08:06;5.28;;;2.30;;
68214;SDS011;55036;52.138;5.236;2022-07-04T02:10:34;6.00;;;2.25;;
68214;SDS011;55036;52.138;5.236;2022-07-04T02:13:01;4.15;;;2.10;;
68214;SDS011;55036;52.138;5.236;2022-07-04T02:15:30;6.97;;;2.10;;
68214;SDS011;55036;52.138;5.236;2022-07-04T02:18:05;4.38;;;2.60;;
68214;SDS011;55036;52.138;5.236;2022-07-04T02:20:33;6.90;;;2.25;;
68214;SDS011;55036;52.138;5.236;2022-07-04T02:23:01;4.57;;;2.80;;
68214;SDS011;55036;52.138;5.236;2022-07-04T02:25:28;5.22;;;2.67;;
68214;SDS011;55036;52.138;5.236;2022-07-04T02:27:55;4.68;;;2.20;;
68214;SDS011;55036;52.138;5.236;2022-07-04T02:30:23;5.32;;;2.25;;
68214;SDS011;55036;52.138;5.236;2022-07-04T02:32:50;3.92;;;2.53;;
68214;SDS011;55036;52.138;5.236;2022-07-04T02:35:17;5.40;;;2.88;;
68214;SDS011;55036;52.138;5.236;2022-07-04T02:37:44;7.72;;;2.60;;
68214;SDS011;55036;52.138;5.236;2022-07-04T02:40:10;6.40;;;3.10;;
68214;SDS011;55036;52.138;5.236;2022-07-04T02:42:37;4.70;;;2.50;;
68214;SDS011;55036;52.138;5.236;2022-07-04T02:45:04;3.95;;;2.40;;
68214;SDS011;55036;52.138;5.236;2022-07-04T02:47:31;3.92;;;2.30;;
68214;SDS011;55036;52.138;5.236;2022-07-04T02:49:58;5.82;;;2.42;;
68214;SDS011;55036;52.138;5.236;2022-07-04T02:52:28;3.33;;;2.22;;
68214;SDS011;55036;52.138;5.236;2022-07-04T02:54:56;4.40;;;2.53;;
68214;SDS011;55036;52.138;5.236;2022-07-04T02:57:23;5.15;;;2.70;;
68214;SDS011;55036;52.138;5.236;2022-07-04T02:59:50;3.65;;;2.75;;
68214;SDS011;55036;52.138;5.236;2022-07-04T03:02:17;3.97;;;2.55;;
68214;SDS011;55036;52.138;5.236;2022-07-04T03:04:43;4.18;;;2.45;;
68214;SDS011;55036;52.138;5.236;2022-07-04T03:07:10;6.13;;;2.85;;
68214;SDS011;55036;52.138;5.236;2022-07-04T03:09:37;5.63;;;2.58;;
68214;SDS011;55036;52.138;5.236;2022-07-04T03:12:04;4.80;;;3.08;;
68214;SDS011;55036;52.138;5.236;2022-07-04T03:14:31;5.55;;;2.85;;
68214;SDS011;55036;52.138;5.236;2022-07-04T03:16:58;4.05;;;2.90;;
68214;SDS011;55036;52.138;5.236;2022-07-04T03:19:25;6.43;;;3.30;;
68214;SDS011;55036;52.138;5.236;2022-07-04T03:21:52;4.63;;;2.83;;
68214;SDS011;55036;52.138;5.236;2022-07-04T03:24:18;5.70;;;3.50;;
68214;SDS011;55036;52.138;5.236;2022-07-04T03:26:45;4.60;;;3.28;;
68214;SDS011;55036;52.138;5.236;2022-07-04T03:29:12;8.30;;;3.58;;
68214;SDS011;55036;52.138;5.236;2022-07-04T03:31:39;7.72;;;2.72;;
68214;SDS011;55036;52.138;5.236;2022-07-04T03:34:05;6.75;;;3.50;;
68214;SDS011;55036;52.138;5.236;2022-07-04T03:36:32;6.50;;;3.40;;
68214;SDS011;55036;52.138;5.236;2022-07-04T03:38:59;4.80;;;3.92;;
68214;SDS011;55036;52.138;5.236;2022-07-04T03:41:25;4.97;;;3.38;;
68214;SDS011;55036;52.138;5.236;2022-07-04T03:43:52;6.45;;;3.78;;
68214;SDS011;55036;52.138;5.236;2022-07-04T03:46:19;6.30;;;4.55;;
68214;SDS011;55036;52.138;5.236;2022-07-04T03:48:46;7.05;;;3.70;;
68214;SDS011;55036;52.138;5.236;2022-07-04T03:51:13;3.70;;;3.00;;
68214;SDS011;55036;52.138;5.236;2022-07-04T03:53:40;11.27;;;3.72;;
68214;SDS011;55036;52.138;5.236;2022-07-04T03:56:07;5.97;;;3.67;;
68214;SDS011;55036;52.138;5.236;2022-07-04T03:58:34;7.10;;;3.70;;
68214;SDS011;55036;52.138;5.236;2022-07-04T04:01:01;5.18;;;4.07;;
68214;SDS011;55036;52.138;5.236;2022-07-04T04:03:28;6.35;;;3.70;;
68214;SDS011;55036;52.138;5.236;2022-07-04T04:06:14;6.53;;;4.50;;
68214;SDS011;55036;52.138;5.236;2022-07-04T04:08:40;8.10;;;4.50;;
68214;SDS011;55036;52.138;5.236;2022-07-04T04:11:07;6.03;;;4.10;;
68214;SDS011;55036;52.138;5.236;2022-07-04T04:13:34;7.30;;;4.80;;
68214;SDS011;55036;52.138;5.236;2022-07-04T04:16:01;8.80;;;4.25;;
68214;SDS011;55036;52.138;5.236;2022-07-04T04:18:27;6.03;;;4.55;;
68214;SDS011;55036;52.138;5.236;2022-07-04T04:20:54;7.75;;;4.65;;
68214;SDS011;55036;52.138;5.236;2022-07-04T04:23:21;6.75;;;4.78;;
68214;SDS011;55036;52.138;5.236;2022-07-04T04:25:47;6.65;;;4.43;;
68214;SDS011;55036;52.138;5.236;2022-07-04T04:28:20;8.30;;;4.97;;
68214;SDS011;55036;52.138;5.236;2022-07-04T04:30:48;8.50;;;5.20;;
68214;SDS011;55036;52.138;5.236;2022-07-04T04:33:16;9.93;;;5.65;;
68214;SDS011;55036;52.138;5.236;2022-07-04T04:35:42;9.75;;;6.35;;
68214;SDS011;55036;52.138;5.236;2022-07-04T04:38:09;8.10;;;5.90;;
68214;SDS011;55036;52.138;5.236;2022-07-04T04:40:36;6.57;;;4.93;;
68214;SDS011;55036;52.138;5.236;2022-07-04T04:43:03;8.43;;;6.20;;
68214;SDS011;55036;52.138;5.236;2022-07-04T04:45:29;7.63;;;5.72;;
68214;SDS011;55036;52.138;5.236;2022-07-04T04:47:56;10.23;;;5.93;;
68214;SDS011;55036;52.138;5.236;2022-07-04T04:50:23;9.25;;;5.95;;
68214;SDS011;55036;52.138;5.236;2022-07-04T04:52:49;9.65;;;6.30;;
68214;SDS011;55036;52.138;5.236;2022-07-04T04:55:16;11.90;;;7.18;;
68214;SDS011;55036;52.138;5.236;2022-07-04T04:57:43;8.60;;;6.40;;
68214;SDS011;55036;52.138;5.236;2022-07-04T05:00:10;8.27;;;6.57;;
68214;SDS011;55036;52.138;5.236;2022-07-04T05:02:37;11.57;;;6.20;;
68214;SDS011;55036;52.138;5.236;2022-07-04T05:05:04;12.18;;;6.53;;
68214;SDS011;55036;52.138;5.236;2022-07-04T05:07:32;9.70;;;6.65;;
68214;SDS011;55036;52.138;5.236;2022-07-04T05:10:00;11.90;;;6.03;;
68214;SDS011;55036;52.138;5.236;2022-07-04T05:12:27;7.35;;;6.03;;
68214;SDS011;55036;52.138;5.236;2022-07-04T05:14:54;7.68;;;5.90;;
68214;SDS011;55036;52.138;5.236;2022-07-04T05:17:21;8.80;;;5.47;;
68214;SDS011;55036;52.138;5.236;2022-07-04T05:19:48;7.35;;;5.15;;
68214;SDS011;55036;52.138;5.236;2022-07-04T05:22:15;9.13;;;5.30;;
68214;SDS011;55036;52.138;5.236;2022-07-04T05:24:42;7.72;;;5.40;;
68214;SDS011;55036;52.138;5.236;2022-07-04T05:27:09;8.70;;;5.60;;
68214;SDS011;55036;52.138;5.236;2022-07-04T05:29:36;9.77;;;5.25;;
68214;SDS011;55036;52.138;5.236;2022-07-04T05:32:04;8.20;;;5.70;;
68214;SDS011;55036;52.138;5.236;2022-07-04T05:34:32;8.43;;;5.18;;
68214;SDS011;55036;52.138;5.236;2022-07-04T05:36:59;9.77;;;5.72;;
68214;SDS011;55036;52.138;5.236;2022-07-04T05:39:25;13.75;;;5.05;;
68214;SDS011;55036;52.138;5.236;2022-07-04T05:41:52;8.77;;;5.22;;
68214;SDS011;55036;52.138;5.236;2022-07-04T05:44:19;7.03;;;5.38;;
68214;SDS011;55036;52.138;5.236;2022-07-04T05:46:46;9.55;;;5.65;;
68214;SDS011;55036;52.138;5.236;2022-07-04T05:49:12;12.70;;;5.00;;
68214;SDS011;55036;52.138;5.236;2022-07-04T05:51:39;12.77;;;5.70;;
68214;SDS011;55036;52.138;5.236;2022-07-04T05:54:06;9.50;;;5.50;;
68214;SDS011;55036;52.138;5.236;2022-07-04T05:56:33;10.73;;;5.47;;
68214;SDS011;55036;52.138;5.236;2022-07-04T05:58:59;8.48;;;5.00;;
68214;SDS011;55036;52.138;5.236;2022-07-04T06:01:26;9.65;;;5.28;;
68214;SDS011;55036;52.138;5.236;2022-07-04T06:03:53;7.78;;;5.03;;
68214;SDS011;55036;52.138;5.236;2022-07-04T06:06:20;10.35;;;5.32;;
68214;SDS011;55036;52.138;5.236;2022-07-04T06:08:46;9.25;;;5.32;;
68214;SDS011;55036;52.138;5.236;2022-07-04T06:11:13;11.25;;;5.10;;
68214;SDS011;55036;52.138;5.236;2022-07-04T06:13:41;8.75;;;4.35;;
68214;SDS011;55036;52.138;5.236;2022-07-04T06:16:07;8.45;;;4.22;;
68214;SDS011;55036;52.138;5.236;2022-07-04T06:18:34;13.75;;;4.30;;
68214;SDS011;55036;52.138;5.236;2022-07-04T06:21:01;8.15;;;3.63;;
68214;SDS011;55036;52.138;5.236;2022-07-04T06:23:28;8.90;;;3.85;;
68214;SDS011;55036;52.138;5.236;2022-07-04T06:25:54;9.10;;;3.40;;
68214;SDS011;55036;52.138;5.236;2022-07-04T06:28:21;10.18;;;4.05;;
68214;SDS011;55036;52.138;5.236;2022-07-04T06:31:08;11.93;;;3.85;;
68214;SDS011;55036;52.138;5.236;2022-07-04T06:33:36;10.27;;;3.67;;
68214;SDS011;55036;52.138;5.236;2022-07-04T06:36:23;6.32;;;3.35;;
68214;SDS011;55036;52.138;5.236;2022-07-04T06:38:50;10.18;;;3.60;;
68214;SDS011;55036;52.138;5.236;2022-07-04T06:41:17;9.25;;;3.40;;
68214;SDS011;55036;52.138;5.236;2022-07-04T06:43:44;10.52;;;3.92;;
68214;SDS011;55036;52.138;5.236;2022-07-04T06:46:10;9.38;;;3.53;;
68214;SDS011;55036;52.138;5.236;2022-07-04T06:48:37;9.75;;;3.63;;
68214;SDS011;55036;52.138;5.236;2022-07-04T06:51:04;8.63;;;3.45;;
68214;SDS011;55036;52.138;5.236;2022-07-04T06:53:31;9.27;;;3.75;;
68214;SDS011;55036;52.138;5.236;2022-07-04T06:55:58;9.27;;;3.78;;
68214;SDS011;55036;52.138;5.236;2022-07-04T06:58:25;9.60;;;3.95;;
68214;SDS011;55036;52.138;5.236;2022-07-04T07:00:51;10.77;;;3.15;;
68214;SDS011;55036;52.138;5.236;2022-07-04T07:03:18;9.90;;;2.67;;
68214;SDS011;55036;52.138;5.236;2022-07-04T07:05:45;10.80;;;3.10;;
68214;SDS011;55036;52.138;5.236;2022-07-04T07:08:25;10.40;;;3.67;;
68214;SDS011;55036;52.138;5.236;2022-07-04T07:10:53;8.02;;;3.08;;
68214;SDS011;55036;52.138;5.236;2022-07-04T07:13:19;9.05;;;3.30;;
68214;SDS011;55036;52.138;5.236;2022-07-04T07:15:46;7.60;;;3.05;;
68214;SDS011;55036;52.138;5.236;2022-07-04T07:18:14;6.22;;;2.67;;
68214;SDS011;55036;52.138;5.236;2022-07-04T07:20:40;8.55;;;2.95;;
68214;SDS011;55036;52.138;5.236;2022-07-04T07:23:07;5.85;;;2.15;;
68214;SDS011;55036;52.138;5.236;2022-07-04T07:25:34;4.75;;;2.63;;
68214;SDS011;55036;52.138;5.236;2022-07-04T07:28:01;6.43;;;2.58;;
68214;SDS011;55036;52.138;5.236;2022-07-04T07:30:28;9.45;;;2.35;;
68214;SDS011;55036;52.138;5.236;2022-07-04T07:32:55;10.82;;;2.67;;
68214;SDS011;55036;52.138;5.236;2022-07-04T07:35:22;15.40;;;3.30;;
68214;SDS011;55036;52.138;5.236;2022-07-04T07:37:49;6.50;;;2.65;;
68214;SDS011;55036;52.138;5.236;2022-07-04T07:40:15;6.07;;;2.20;;
68214;SDS011;55036;52.138;5.236;2022-07-04T07:42:42;10.82;;;3.00;;
68214;SDS011;55036;52.138;5.236;2022-07-04T07:45:09;5.00;;;2.70;;
68214;SDS011;55036;52.138;5.236;2022-07-04T07:47:36;5.72;;;2.35;;
68214;SDS011;55036;52.138;5.236;2022-07-04T07:50:03;5.43;;;2.13;;
68214;SDS011;55036;52.138;5.236;2022-07-04T07:52:30;7.40;;;2.30;;
68214;SDS011;55036;52.138;5.236;2022-07-04T07:54:57;7.15;;;2.15;;
68214;SDS011;55036;52.138;5.236;2022-07-04T07:57:26;5.78;;;2.03;;
68214;SDS011;55036;52.138;5.236;2022-07-04T07:59:53;4.10;;;2.20;;
68214;SDS011;55036;52.138;5.236;2022-07-04T08:02:20;6.75;;;1.75;;
68214;SDS011;55036;52.138;5.236;2022-07-04T08:05:07;5.63;;;1.83;;
68214;SDS011;55036;52.138;5.236;2022-07-04T08:07:35;3.78;;;1.65;;
68214;SDS011;55036;52.138;5.236;2022-07-04T08:10:02;10.90;;;1.63;;
68214;SDS011;55036;52.138;5.236;2022-07-04T08:12:30;3.67;;;1.88;;
68214;SDS011;55036;52.138;5.236;2022-07-04T08:14:57;4.47;;;2.05;;
68214;SDS011;55036;52.138;5.236;2022-07-04T08:17:31;6.28;;;1.40;;
68214;SDS011;55036;52.138;5.236;2022-07-04T08:19:58;11.43;;;1.80;;
68214;SDS011;55036;52.138;5.236;2022-07-04T08:22:25;6.13;;;1.45;;
68214;SDS011;55036;52.138;5.236;2022-07-04T08:24:52;4.05;;;1.50;;
68214;SDS011;55036;52.138;5.236;2022-07-04T08:27:19;5.88;;;1.90;;
68214;SDS011;55036;52.138;5.236;2022-07-04T08:29:57;5.75;;;1.67;;
68214;SDS011;55036;52.138;5.236;2022-07-04T08:32:23;4.13;;;1.50;;
68214;SDS011;55036;52.138;5.236;2022-07-04T08:34:50;5.00;;;1.50;;
68214;SDS011;55036;52.138;5.236;2022-07-04T08:37:17;5.78;;;1.25;;
68214;SDS011;55036;52.138;5.236;2022-07-04T08:39:44;2.92;;;1.27;;
68214;SDS011;55036;52.138;5.236;2022-07-04T08:42:18;5.68;;;1.40;;
68214;SDS011;55036;52.138;5.236;2022-07-04T08:44:50;4.78;;;1.58;;
68214;SDS011;55036;52.138;5.236;2022-07-04T08:47:24;6.05;;;1.60;;
68214;SDS011;55036;52.138;5.236;2022-07-04T08:50:11;4.97;;;1.25;;
68214;SDS011;55036;52.138;5.236;2022-07-04T08:52:42;4.47;;;1.33;;
68214;SDS011;55036;52.138;5.236;2022-07-04T08:55:13;3.10;;;1.40;;
68214;SDS011;55036;52.138;5.236;2022-07-04T08:57:58;4.53;;;1.67;;
68214;SDS011;55036;52.138;5.236;2022-07-04T09:00:44;4.38;;;1.30;;
68214;SDS011;55036;52.138;5.236;2022-07-04T09:03:11;3.58;;;1.70;;
68214;SDS011;55036;52.138;5.236;2022-07-04T09:05:38;4.32;;;1.33;;
68214;SDS011;55036;52.138;5.236;2022-07-04T09:08:05;3.33;;;1.20;;
68214;SDS011;55036;52.138;5.236;2022-07-04T09:10:33;2.95;;;1.30;;
68214;SDS011;55036;52.138;5.236;2022-07-04T09:13:00;2.40;;;1.30;;
68214;SDS011;55036;52.138;5.236;2022-07-04T09:15:39;3.40;;;1.30;;
68214;SDS011;55036;52.138;5.236;2022-07-04T09:18:18;3.58;;;1.55;;
68214;SDS011;55036;52.138;5.236;2022-07-04T09:20:56;3.60;;;1.25;;
68214;SDS011;55036;52.138;5.236;2022-07-04T09:23:29;3.28;;;1.02;;
68214;SDS011;55036;52.138;5.236;2022-07-04T09:28:38;7.40;;;1.77;;
68214;SDS011;55036;52.138;5.236;2022-07-04T09:31:15;6.65;;;2.03;;
68214;SDS011;55036;52.138;5.236;2022-07-04T09:33:44;5.25;;;1.20;;
68214;SDS011;55036;52.138;5.236;2022-07-04T09:36:22;1.65;;;0.93;;
68214;SDS011;55036;52.138;5.236;2022-07-04T09:39:10;6.32;;;1.63;;
68214;SDS011;55036;52.138;5.236;2022-07-04T09:41:51;5.22;;;1.23;;
68214;SDS011;55036;52.138;5.236;2022-07-04T09:44:25;3.35;;;1.45;;
68214;SDS011;55036;52.138;5.236;2022-07-04T09:47:25;2.53;;;1.08;;
68214;SDS011;55036;52.138;5.236;2022-07-04T09:52:55;3.63;;;1.40;;
68214;SDS011;55036;52.138;5.236;2022-07-04T09:55:30;2.70;;;1.20;;
68214;SDS011;55036;52.138;5.236;2022-07-04T09:57:59;3.40;;;1.67;;
68214;SDS011;55036;52.138;5.236;2022-07-04T10:00:32;3.67;;;1.10;;
68214;SDS011;55036;52.138;5.236;2022-07-04T10:06:00;3.88;;;1.25;;
68214;SDS011;55036;52.138;5.236;2022-07-04T10:08:36;2.97;;;1.35;;
68214;SDS011;55036;52.138;5.236;2022-07-04T10:11:04;5.90;;;1.30;;
68214;SDS011;55036;52.138;5.236;2022-07-04T10:16:02;2.67;;;1.50;;
68214;SDS011;55036;52.138;5.236;2022-07-04T10:18:29;4.63;;;1.65;;
68214;SDS011;55036;52.138;5.236;2022-07-04T10:20:56;4.78;;;1.92;;
68214;SDS011;55036;52.138;5.236;2022-07-04T10:23:24;3.88;;;1.30;;
68214;SDS011;55036;52.138;5.236;2022-07-04T10:25:57;4.18;;;1.33;;
68214;SDS011;55036;52.138;5.236;2022-07-04T10:28:25;2.30;;;1.27;;
68214;SDS011;55036;52.138;5.236;2022-07-04T10:30:52;2.45;;;1.10;;
68214;SDS011;55036;52.138;5.236;2022-07-04T10:33:22;4.65;;;1.70;;
68214;SDS011;55036;52.138;5.236;2022-07-04T10:36:00;3.40;;;1.00;;
68214;SDS011;55036;52.138;5.236;2022-07-04T10:38:52;2.50;;;1.00;;
68214;SDS011;55036;52.138;5.236;2022-07-04T10:41:25;2.42;;;1.20;;
68214;SDS011;55036;52.138;5.236;2022-07-04T10:49:04;1.85;;;0.85;;
68214;SDS011;55036;52.138;5.236;2022-07-04T10:54:39;2.60;;;1.17;;
68214;SDS011;55036;52.138;5.236;2022-07-04T10:57:11;5.03;;;1.20;;
68214;SDS011;55036;52.138;5.236;2022-07-04T11:17:57;2.88;;;0.90;;
68214;SDS011;55036;52.138;5.236;2022-07-04T11:20:24;1.58;;;0.93;;
68214;SDS011;55036;52.138;5.236;2022-07-04T11:23:15;2.25;;;0.93;;
68214;SDS011;55036;52.138;5.236;2022-07-04T11:25:45;2.45;;;1.00;;
68214;SDS011;55036;52.138;5.236;2022-07-04T11:28:23;2.15;;;1.10;;
68214;SDS011;55036;52.138;5.236;2022-07-04T11:31:10;1.85;;;0.80;;
68214;SDS011;55036;52.138;5.236;2022-07-04T11:33:38;2.53;;;0.70;;
68214;SDS011;55036;52.138;5.236;2022-07-04T11:36:08;1.77;;;1.08;;
68214;SDS011;55036;52.138;5.236;2022-07-04T11:39:04;2.78;;;1.08;;
68214;SDS011;55036;52.138;5.236;2022-07-04T11:41:31;2.15;;;0.98;;
68214;SDS011;55036;52.138;5.236;2022-07-04T11:44:19;2.95;;;1.00;;
68214;SDS011;55036;52.138;5.236;2022-07-04T11:47:11;6.15;;;1.17;;
68214;SDS011;55036;52.138;5.236;2022-07-04T11:49:54;1.25;;;0.77;;
68214;SDS011;55036;52.138;5.236;2022-07-04T11:52:29;6.45;;;1.23;;
68214;SDS011;55036;52.138;5.236;2022-07-04T11:55:26;6.25;;;1.10;;
68214;SDS011;55036;52.138;5.236;2022-07-04T11:57:53;1.60;;;1.00;;
68214;SDS011;55036;52.138;5.236;2022-07-04T12:00:22;2.20;;;1.00;;
68214;SDS011;55036;52.138;5.236;2022-07-04T12:02:52;2.00;;;1.08;;
68214;SDS011;55036;52.138;5.236;2022-07-04T12:05:24;2.03;;;0.90;;
68214;SDS011;55036;52.138;5.236;2022-07-04T12:07:51;1.95;;;0.90;;
68214;SDS011;55036;52.138;5.236;2022-07-04T12:10:37;1.38;;;1.15;;
68214;SDS011;55036;52.138;5.236;2022-07-04T12:13:05;4.05;;;1.48;;
68214;SDS011;55036;52.138;5.236;2022-07-04T12:15:38;2.67;;;1.00;;
68214;SDS011;55036;52.138;5.236;2022-07-04T12:18:23;3.08;;;0.90;;
68214;SDS011;55036;52.138;5.236;2022-07-04T12:21:09;5.18;;;1.27;;
68214;SDS011;55036;52.138;5.236;2022-07-04T12:23:38;1.58;;;1.00;;
68214;SDS011;55036;52.138;5.236;2022-07-04T12:26:25;3.22;;;1.00;;
68214;SDS011;55036;52.138;5.236;2022-07-04T12:28:54;1.48;;;1.17;;
68214;SDS011;55036;52.138;5.236;2022-07-04T12:31:42;3.13;;;1.02;;
68214;SDS011;55036;52.138;5.236;2022-07-04T12:34:16;1.63;;;1.10;;
68214;SDS011;55036;52.138;5.236;2022-07-04T12:39:26;3.65;;;1.30;;
68214;SDS011;55036;52.138;5.236;2022-07-04T12:44:38;2.90;;;0.93;;
68214;SDS011;55036;52.138;5.236;2022-07-04T12:47:06;1.70;;;0.90;;
68214;SDS011;55036;52.138;5.236;2022-07-04T12:49:54;3.90;;;1.55;;
68214;SDS011;55036;52.138;5.236;2022-07-04T12:52:22;4.63;;;1.00;;
68214;SDS011;55036;52.138;5.236;2022-07-04T12:55:03;2.88;;;1.10;;
68214;SDS011;55036;52.138;5.236;2022-07-04T12:57:33;2.22;;;1.00;;
68214;SDS011;55036;52.138;5.236;2022-07-04T13:00:00;2.83;;;1.13;;
68214;SDS011;55036;52.138;5.236;2022-07-04T13:02:46;3.53;;;0.98;;
68214;SDS011;55036;52.138;5.236;2022-07-04T13:05:13;1.65;;;1.20;;
68214;SDS011;55036;52.138;5.236;2022-07-04T13:07:40;3.53;;;1.08;;
68214;SDS011;55036;52.138;5.236;2022-07-04T13:10:07;1.77;;;0.90;;
68214;SDS011;55036;52.138;5.236;2022-07-04T13:12:34;1.88;;;1.02;;
68214;SDS011;55036;52.138;5.236;2022-07-04T13:15:01;1.70;;;1.00;;
68214;SDS011;55036;52.138;5.236;2022-07-04T13:17:27;3.22;;;1.10;;
68214;SDS011;55036;52.138;5.236;2022-07-04T13:19:54;2.05;;;0.90;;
68214;SDS011;55036;52.138;5.236;2022-07-04T13:22:22;1.50;;;1.05;;
68214;SDS011;55036;52.138;5.236;2022-07-04T13:24:50;5.10;;;1.00;;
68214;SDS011;55036;52.138;5.236;2022-07-04T13:27:17;3.58;;;1.27;;
68214;SDS011;55036;52.138;5.236;2022-07-04T13:29:44;2.78;;;0.90;;
68214;SDS011;55036;52.138;5.236;2022-07-04T13:32:11;1.52;;;0.80;;
68214;SDS011;55036;52.138;5.236;2022-07-04T13:34:38;2.20;;;0.95;;
68214;SDS011;55036;52.138;5.236;2022-07-04T13:37:05;3.70;;;0.90;;
68214;SDS011;55036;52.138;5.236;2022-07-04T13:39:32;1.92;;;1.20;;
68214;SDS011;55036;52.138;5.236;2022-07-04T13:42:17;2.30;;;1.10;;
68214;SDS011;55036;52.138;5.236;2022-07-04T13:45:05;1.73;;;1.00;;
68214;SDS011;55036;52.138;5.236;2022-07-04T13:47:33;3.13;;;1.10;;
68214;SDS011;55036;52.138;5.236;2022-07-04T13:50:00;1.80;;;1.02;;
68214;SDS011;55036;52.138;5.236;2022-07-04T13:52:27;2.13;;;0.93;;
68214;SDS011;55036;52.138;5.236;2022-07-04T13:54:54;5.68;;;1.58;;
68214;SDS011;55036;52.138;5.236;2022-07-04T13:57:21;1.23;;;1.00;;
68214;SDS011;55036;52.138;5.236;2022-07-04T13:59:47;3.10;;;0.88;;
68214;SDS011;55036;52.138;5.236;2022-07-04T14:02:14;0.95;;;0.80;;
68214;SDS011;55036;52.138;5.236;2022-07-04T14:04:41;2.35;;;1.00;;
68214;SDS011;55036;52.138;5.236;2022-07-04T14:07:08;2.67;;;1.10;;
68214;SDS011;55036;52.138;5.236;2022-07-04T14:09:44;3.42;;;1.20;;
68214;SDS011;55036;52.138;5.236;2022-07-04T14:12:10;2.08;;;1.20;;
68214;SDS011;55036;52.138;5.236;2022-07-04T14:14:37;2.97;;;1.05;;
68214;SDS011;55036;52.138;5.236;2022-07-04T14:17:04;5.38;;;1.30;;
68214;SDS011;55036;52.138;5.236;2022-07-04T14:19:50;1.83;;;1.20;;
68214;SDS011;55036;52.138;5.236;2022-07-04T14:22:17;1.77;;;1.00;;
68214;SDS011;55036;52.138;5.236;2022-07-04T14:24:44;2.90;;;1.30;;
68214;SDS011;55036;52.138;5.236;2022-07-04T14:27:11;3.05;;;1.10;;
68214;SDS011;55036;52.138;5.236;2022-07-04T14:29:37;4.20;;;1.08;;
68214;SDS011;55036;52.138;5.236;2022-07-04T14:32:08;3.00;;;1.30;;
68214;SDS011;55036;52.138;5.236;2022-07-04T14:34:35;1.98;;;1.00;;
68214;SDS011;55036;52.138;5.236;2022-07-04T14:37:02;2.05;;;1.30;;
68214;SDS011;55036;52.138;5.236;2022-07-04T14:39:29;1.15;;;0.70;;
68214;SDS011;55036;52.138;5.236;2022-07-04T14:41:56;1.73;;;1.00;;
68214;SDS011;55036;52.138;5.236;2022-07-04T14:44:23;2.47;;;1.20;;
68214;SDS011;55036;52.138;5.236;2022-07-04T14:46:49;4.43;;;1.50;;
68214;SDS011;55036;52.138;5.236;2022-07-04T14:49:16;4.38;;;1.20;;
68214;SDS011;55036;52.138;5.236;2022-07-04T14:51:43;2.88;;;1.10;;
68214;SDS011;55036;52.138;5.236;2022-07-04T14:54:10;1.70;;;0.98;;
68214;SDS011;55036;52.138;5.236;2022-07-04T14:56:37;3.63;;;1.10;;
68214;SDS011;55036;52.138;5.236;2022-07-04T14:59:04;2.88;;;1.40;;
68214;SDS011;55036;52.138;5.236;2022-07-04T15:01:31;2.55;;;1.05;;
68214;SDS011;55036;52.138;5.236;2022-07-04T15:03:58;4.10;;;1.52;;
68214;SDS011;55036;52.138;5.236;2022-07-04T15:06:25;2.63;;;0.90;;
68214;SDS011;55036;52.138;5.236;2022-07-04T15:08:51;2.58;;;1.30;;
68214;SDS011;55036;52.138;5.236;2022-07-04T15:11:19;3.75;;;1.20;;
68214;SDS011;55036;52.138;5.236;2022-07-04T15:13:46;4.60;;;1.20;;
68214;SDS011;55036;52.138;5.236;2022-07-04T15:16:13;4.85;;;1.60;;
68214;SDS011;55036;52.138;5.236;2022-07-04T15:18:50;2.80;;;1.17;;
68214;SDS011;55036;52.138;5.236;2022-07-04T15:21:17;3.08;;;1.30;;
68214;SDS011;55036;52.138;5.236;2022-07-04T15:24:03;2.42;;;1.20;;
68214;SDS011;55036;52.138;5.236;2022-07-04T15:26:49;4.20;;;1.40;;
68214;SDS011;55036;52.138;5.236;2022-07-04T15:29:20;2.05;;;1.05;;
68214;SDS011;55036;52.138;5.236;2022-07-04T15:31:49;3.55;;;1.13;;
68214;SDS011;55036;52.138;5.236;2022-07-04T15:34:22;4.68;;;1.17;;
68214;SDS011;55036;52.138;5.236;2022-07-04T15:36:49;3.15;;;1.10;;
68214;SDS011;55036;52.138;5.236;2022-07-04T15:39:16;5.40;;;1.40;;
68214;SDS011;55036;52.138;5.236;2022-07-04T15:41:43;1.73;;;1.08;;